Time;durP1;ratioP1;P1;durP2;ratioP2;P2;SDS_P1;SDS_P2;PMS_P1;PMS_P2;Temp;Humidity;BMP_temperature;BMP_pressure;BME280_temperature;BME280_humidity;BME280_pressure;Samples;Min_cycle;Max_cycle;Signal;HPM_P1;HPM_P2
2023/01/28 00:02:15;;;;;;;4.32;2.63;;;6.80;99.90;;;;;;10309425;28;20021;-66
2023/01/28 00:07:17;;;;;;;4.05;2.40;;;6.70;99.90;;;;;;10306648;28;20748;-68
2023/01/28 00:12:18;;;;;;;3.67;2.42;;;6.80;99.90;;;;;;10279582;28;20046;-67
2023/01/28 00:17:19;;;;;;;3.75;2.50;;;6.80;99.90;;;;;;10311440;28;20674;-67
2023/01/28 00:22:20;;;;;;;3.95;2.53;;;6.80;99.90;;;;;;10255589;28;20039;-67
2023/01/28 00:27:21;;;;;;;4.90;2.65;;;6.80;99.90;;;;;;10325049;28;20012;-67
2023/01/28 00:32:21;;;;;;;3.67;2.70;;;6.80;99.90;;;;;;10331976;28;20027;-68
2023/01/28 00:37:22;;;;;;;3.53;2.22;;;6.70;99.90;;;;;;10333895;28;20102;-67
2023/01/28 00:42:23;;;;;;;5.22;2.72;;;6.70;99.90;;;;;;10294066;28;20252;-68
2023/01/28 00:47:23;;;;;;;3.75;2.60;;;6.70;99.90;;;;;;10277946;28;20449;-67
2023/01/28 00:52:24;;;;;;;3.88;2.47;;;6.70;99.90;;;;;;10310941;28;20031;-68
2023/01/28 00:57:25;;;;;;;5.65;3.00;;;6.70;99.90;;;;;;10329179;28;20462;-67
2023/01/28 01:02:26;;;;;;;3.88;2.38;;;6.70;99.90;;;;;;10325543;28;20085;-67
2023/01/28 01:07:33;;;;;;;4.47;2.95;;;6.70;99.90;;;;;;10303671;28;20055;-67
2023/01/28 01:12:34;;;;;;;3.17;2.60;;;6.70;99.90;;;;;;10307917;28;20082;-67
2023/01/28 01:17:40;;;;;;;3.67;2.58;;;6.70;99.90;;;;;;10328403;28;20066;-67
2023/01/28 01:22:40;;;;;;;3.63;2.35;;;6.70;99.90;;;;;;10333203;28;20024;-68
2023/01/28 01:27:42;;;;;;;4.30;2.60;;;6.70;99.90;;;;;;10349847;28;20024;-68
2023/01/28 01:32:43;;;;;;;3.83;2.38;;;6.70;99.90;;;;;;10331393;28;20366;-68
2023/01/28 01:37:44;;;;;;;3.63;2.47;;;6.70;99.90;;;;;;10283358;28;20049;-67
2023/01/28 01:42:45;;;;;;;4.05;2.40;;;6.70;99.90;;;;;;10327740;28;20240;-67
2023/01/28 01:48:04;;;;;;;3.60;2.22;;;6.70;99.90;;;;;;10315557;28;20116;-67
2023/01/28 01:53:13;;;;;;;;;;;6.00;99.90;;;;;;10327856;28;20161;-68
2023/01/28 01:58:18;;;;;;;4.18;2.53;;;6.70;99.90;;;;;;10315476;28;19922;-68
2023/01/28 02:03:25;;;;;;;4.63;2.75;;;6.70;99.90;;;;;;10354838;28;20067;-67
2023/01/28 02:08:26;;;;;;;4.32;2.60;;;6.70;99.90;;;;;;10290703;28;20110;-67
2023/01/28 02:13:39;;;;;;;4.10;2.50;;;6.70;99.90;;;;;;10344586;28;20436;-67
2023/01/28 02:18:40;;;;;;;4.30;2.78;;;6.70;99.90;;;;;;10326646;28;20086;-67
2023/01/28 02:24:11;;;;;;;3.97;2.42;;;6.60;99.90;;;;;;10358424;28;20059;-66
2023/01/28 02:29:42;;;;;;;4.20;2.50;;;6.60;99.90;;;;;;10337507;28;20031;-66
2023/01/28 02:35:03;;;;;;;3.35;2.40;;;6.60;99.90;;;;;;10331351;28;20090;-66
2023/01/28 02:40:19;;;;;;;3.92;2.50;;;6.60;99.90;;;;;;10314496;28;20648;-66
2023/01/28 02:51:27;;;;;;;3.85;2.50;;;6.60;99.90;;;;;;10302446;28;20673;-66
2023/01/28 02:56:42;;;;;;;3.58;2.72;;;6.60;99.90;;;;;;10275301;28;20398;-67
2023/01/28 03:01:47;;;;;;;4.13;2.42;;;6.60;99.90;;;;;;10360958;28;20021;-67
2023/01/28 03:06:52;;;;;;;4.43;3.10;;;6.60;99.90;;;;;;10337602;28;20016;-67
2023/01/28 03:38:50;;;;;;;5.03;2.53;;;6.60;99.90;;;;;;10350840;28;20031;-66
2023/01/28 03:43:52;;;;;;;3.40;2.38;;;6.60;99.90;;;;;;10297714;28;20031;-66
2023/01/28 03:48:53;;;;;;;4.13;2.85;;;6.60;99.90;;;;;;10292272;28;20115;-66
2023/01/28 03:53:53;;;;;;;4.18;2.63;;;6.50;99.90;;;;;;10319623;28;20023;-66
2023/01/28 03:58:56;;;;;;;4.35;2.40;;;6.50;99.90;;;;;;10343551;28;20094;-67
2023/01/28 04:03:56;;;;;;;5.10;2.95;;;6.50;99.90;;;;;;10269005;28;20023;-67
2023/01/28 04:08:58;;;;;;;4.60;2.90;;;6.50;99.90;;;;;;10256839;28;20092;-67
2023/01/28 04:13:58;;;;;;;4.28;2.70;;;6.50;99.90;;;;;;10331748;28;20015;-67
2023/01/28 04:18:59;;;;;;;4.55;2.47;;;6.50;99.90;;;;;;10319356;28;20027;-67
2023/01/28 04:24:00;;;;;;;4.65;3.00;;;6.50;99.90;;;;;;10298147;28;20033;-67
2023/01/28 04:29:01;;;;;;;4.18;2.80;;;6.50;99.90;;;;;;10303439;28;20095;-67
2023/01/28 04:34:02;;;;;;;4.45;2.88;;;6.50;99.90;;;;;;10321760;28;20135;-67
2023/01/28 04:39:03;;;;;;;4.97;2.80;;;6.50;99.90;;;;;;10356101;28;20482;-67
2023/01/28 04:44:04;;;;;;;5.43;3.30;;;6.50;99.90;;;;;;10324897;28;20025;-67
2023/01/28 04:49:04;;;;;;;4.45;2.63;;;6.50;99.90;;;;;;10323247;28;20746;-67
2023/01/28 04:54:06;;;;;;;5.43;3.17;;;6.50;99.90;;;;;;10300954;28;20031;-67
2023/01/28 04:59:07;;;;;;;6.13;3.28;;;6.50;99.90;;;;;;10339101;28;20031;-67
2023/01/28 05:04:08;;;;;;;4.45;2.88;;;6.50;99.90;;;;;;10298630;28;20055;-67
2023/01/28 05:09:09;;;;;;;5.25;3.30;;;6.50;99.90;;;;;;10318498;28;20093;-67
2023/01/28 05:14:09;;;;;;;4.85;3.03;;;6.50;99.90;;;;;;10289892;28;20092;-67
2023/01/28 05:19:11;;;;;;;5.28;3.30;;;6.50;99.90;;;;;;10310180;28;20133;-67
2023/01/28 05:24:11;;;;;;;4.47;2.88;;;6.50;99.90;;;;;;10316802;28;20169;-67
2023/01/28 05:29:12;;;;;;;4.63;3.05;;;6.50;99.90;;;;;;10275692;28;20146;-67
2023/01/28 05:34:13;;;;;;;4.60;2.92;;;6.40;99.90;;;;;;10297345;28;20046;-67
2023/01/28 05:39:13;;;;;;;4.68;2.83;;;6.50;99.90;;;;;;10275277;28;20061;-67
2023/01/28 05:44:14;;;;;;;6.57;2.97;;;6.40;99.90;;;;;;10338516;28;20413;-67
2023/01/28 05:49:15;;;;;;;6.05;3.35;;;6.40;99.90;;;;;;10334696;28;20031;-66
2023/01/28 05:54:16;;;;;;;5.57;2.95;;;6.40;99.90;;;;;;10334700;28;20301;-66
2023/01/28 05:59:17;;;;;;;5.18;3.30;;;6.40;99.90;;;;;;10307897;28;20038;-66
2023/01/28 06:04:18;;;;;;;5.63;3.17;;;6.40;99.90;;;;;;10291529;28;20124;-66
2023/01/28 06:09:19;;;;;;;6.22;3.42;;;6.40;99.90;;;;;;10272440;28;20023;-66
2023/01/28 06:14:20;;;;;;;6.95;3.40;;;6.40;99.90;;;;;;10226977;28;20521;-66
2023/01/28 06:19:20;;;;;;;5.15;2.90;;;6.40;99.90;;;;;;10238475;28;20032;-67
2023/01/28 06:24:21;;;;;;;5.22;2.97;;;6.40;99.90;;;;;;10250350;28;20025;-67
2023/01/28 06:29:22;;;;;;;5.88;3.50;;;6.40;99.90;;;;;;10241425;28;20027;-67
2023/01/28 06:34:23;;;;;;;4.65;2.75;;;6.40;99.90;;;;;;10234168;28;20024;-67
2023/01/28 06:39:25;;;;;;;6.70;3.75;;;6.30;99.90;;;;;;10231180;28;20030;-67
2023/01/28 06:44:26;;;;;;;4.35;3.03;;;6.40;99.90;;;;;;10239617;28;20113;-67
2023/01/28 06:49:27;;;;;;;5.50;3.38;;;6.40;99.90;;;;;;10234512;28;20249;-67
2023/01/28 06:54:27;;;;;;;5.75;3.20;;;6.40;99.90;;;;;;10231598;28;20050;-67
2023/01/28 06:59:28;;;;;;;5.43;3.50;;;6.40;99.90;;;;;;10246264;28;20244;-67
2023/01/28 07:04:30;;;;;;;5.75;3.15;;;6.40;99.90;;;;;;10243182;28;20035;-67
2023/01/28 07:09:30;;;;;;;5.18;2.85;;;6.40;99.90;;;;;;10249743;28;20029;-67
2023/01/28 07:14:31;;;;;;;5.40;3.17;;;6.40;99.90;;;;;;10231588;28;20388;-67
2023/01/28 07:19:32;;;;;;;6.40;3.33;;;6.40;99.90;;;;;;10253385;28;20029;-66
2023/01/28 07:24:32;;;;;;;7.13;4.13;;;6.40;99.90;;;;;;10243346;28;20063;-66
2023/01/28 07:29:39;;;;;;;4.60;3.13;;;6.40;99.90;;;;;;10261900;28;20345;-67
2023/01/28 07:34:41;;;;;;;6.13;3.50;;;6.40;99.90;;;;;;10229419;28;20505;-66
2023/01/28 07:39:42;;;;;;;4.80;2.75;;;6.40;99.90;;;;;;10239045;28;20029;-67
2023/01/28 07:44:43;;;;;;;5.88;3.28;;;6.40;99.90;;;;;;10248909;28;20020;-66
2023/01/28 07:49:43;;;;;;;5.95;3.47;;;6.40;99.90;;;;;;10271481;28;20625;-66
2023/01/28 07:54:44;;;;;;;5.10;3.30;;;6.30;99.90;;;;;;10237317;28;20046;-67
2023/01/28 07:59:45;;;;;;;5.97;3.33;;;6.40;99.90;;;;;;10248575;28;20376;-66
2023/01/28 08:04:46;;;;;;;5.65;3.55;;;6.30;99.90;;;;;;10249797;28;20023;-66
2023/01/28 08:09:46;;;;;;;4.68;2.78;;;6.40;99.90;;;;;;10245258;28;20482;-66
2023/01/28 08:14:47;;;;;;;5.43;2.85;;;6.30;99.90;;;;;;10239098;28;20502;-67
2023/01/28 08:19:48;;;;;;;6.05;3.63;;;6.30;99.90;;;;;;10269038;28;20433;-67
2023/01/28 08:24:48;;;;;;;6.50;3.60;;;6.40;99.90;;;;;;10249286;28;20028;-67
2023/01/28 08:29:49;;;;;;;5.60;3.47;;;6.30;99.90;;;;;;10254080;28;20031;-66
2023/01/28 08:34:50;;;;;;;6.95;3.50;;;6.30;99.90;;;;;;10260355;28;20031;-67
2023/01/28 08:39:50;;;;;;;7.43;3.65;;;6.30;99.90;;;;;;10272461;28;20497;-67
2023/01/28 08:44:51;;;;;;;5.78;3.80;;;6.40;99.90;;;;;;10263217;28;20184;-67
2023/01/28 08:49:51;;;;;;;6.72;3.70;;;6.40;99.90;;;;;;10271636;28;20055;-67
2023/01/28 08:54:52;;;;;;;6.63;3.63;;;6.40;99.90;;;;;;10236000;28;20092;-66
2023/01/28 08:59:53;;;;;;;5.85;3.42;;;6.40;99.90;;;;;;10260201;28;20040;-67
2023/01/28 09:04:53;;;;;;;6.15;3.72;;;6.40;99.90;;;;;;10263074;28;20027;-67
2023/01/28 09:09:54;;;;;;;5.95;3.35;;;6.40;99.90;;;;;;10235971;28;20027;-66
2023/01/28 09:14:54;;;;;;;6.30;3.55;;;6.40;99.90;;;;;;10251610;28;20535;-67
2023/01/28 09:19:55;;;;;;;7.40;4.22;;;6.40;99.90;;;;;;10254803;28;20027;-67
2023/01/28 09:24:56;;;;;;;6.63;3.65;;;6.50;99.90;;;;;;10249365;28;20047;-66
2023/01/28 09:29:56;;;;;;;6.68;3.47;;;6.50;99.90;;;;;;10238331;28;20090;-67
2023/01/28 09:34:57;;;;;;;6.97;4.10;;;6.60;99.90;;;;;;10242196;28;20023;-68
2023/01/28 09:45:14;;;;;;;6.60;3.63;;;6.60;99.90;;;;;;10220355;28;20450;-67
2023/01/28 09:50:38;;;;;;;5.97;3.63;;;6.60;99.90;;;;;;10270729;23;20042;-80
2023/01/28 09:55:44;;;;;;;6.90;3.70;;;6.10;99.90;;;;;;10297341;28;20039;-79
2023/01/28 10:01:04;;;;;;;6.57;3.78;;;6.70;99.90;;;;;;10289292;28;20019;-79
2023/01/28 10:06:08;;;;;;;6.45;3.67;;;6.60;99.90;;;;;;10293663;28;20039;-80
2023/01/28 10:11:46;;;;;;;7.57;4.07;;;6.70;99.90;;;;;;10275019;28;20061;-81
2023/01/28 10:17:19;;;;;;;5.43;3.33;;;6.80;99.90;;;;;;10282079;28;21619;-79
2023/01/28 10:22:29;;;;;;;6.55;3.80;;;6.80;99.90;;;;;;10277244;28;20376;-81
2023/01/28 10:27:32;;;;;;;5.45;3.55;;;7.00;99.90;;;;;;10272114;28;20019;-80
2023/01/28 10:32:37;;;;;;;6.88;3.55;;;7.10;99.90;;;;;;10261048;28;20073;-80
2023/01/28 10:37:39;;;;;;;7.32;3.72;;;7.20;99.90;;;;;;10270771;28;20073;-81
2023/01/28 10:42:40;;;;;;;8.05;3.80;;;7.30;99.90;;;;;;10272894;28;20069;-78
2023/01/28 10:47:47;;;;;;;6.43;3.90;;;7.40;99.90;;;;;;10270935;28;20429;-81
2023/01/28 10:52:53;;;;;;;7.75;3.80;;;7.50;99.90;;;;;;10263565;28;20031;-80
2023/01/28 10:57:56;;;;;;;6.38;3.72;;;7.60;99.90;;;;;;10267595;28;20115;-80
2023/01/28 11:02:58;;;;;;;6.28;3.85;;;7.60;99.90;;;;;;10277658;28;20035;-80
2023/01/28 11:08:26;;;;;;;7.88;4.32;;;7.80;99.90;;;;;;10266058;28;20023;-80
2023/01/28 11:13:28;;;;;;;7.53;4.40;;;8.70;99.90;;;;;;10256970;28;20081;-80
2023/01/28 11:18:53;;;;;;;6.80;4.40;;;7.80;99.90;;;;;;10260796;28;20034;-80
2023/01/28 11:23:56;;;;;;;7.38;4.00;;;7.90;99.90;;;;;;10288365;28;20069;-79
2023/01/28 11:28:58;;;;;;;10.27;4.32;;;7.90;99.90;;;;;;10282727;28;20026;-80
2023/01/28 11:34:01;;;;;;;6.40;3.63;;;7.90;99.90;;;;;;10259669;28;20023;-80
2023/01/28 11:39:27;;;;;;;6.72;3.72;;;8.40;99.90;;;;;;10263291;28;20026;-79
2023/01/28 11:44:27;;;;;;;7.75;4.43;;;8.00;99.90;;;;;;10258949;28;20065;-79
2023/01/28 11:49:58;;;;;;;8.23;4.10;;;8.10;99.90;;;;;;10279407;28;20072;-80
2023/01/28 11:55:22;;;;;;;6.30;3.80;;;8.10;99.80;;;;;;10285907;28;20027;-79
2023/01/28 12:00:49;;;;;;;6.82;3.97;;;8.20;99.80;;;;;;10266901;28;20038;-78
2023/01/28 12:06:20;;;;;;;8.15;4.18;;;8.20;99.80;;;;;;10264827;28;20199;-80
2023/01/28 12:17:12;;;;;;;7.78;4.13;;;8.30;99.70;;;;;;10260018;28;20046;-80
2023/01/28 12:22:38;;;;;;;7.00;4.00;;;8.20;99.90;;;;;;10273847;28;20513;-81
2023/01/28 12:28:14;;;;;;;6.85;3.78;;;8.20;99.80;;;;;;10288830;28;20078;-80
2023/01/28 12:33:36;;;;;;;7.57;4.10;;;8.20;99.90;;;;;;10269693;28;20042;-79
2023/01/28 12:39:14;;;;;;;8.48;4.03;;;8.10;99.90;;;;;;10269296;28;20687;-79
2023/01/28 12:44:42;;;;;;;6.50;3.70;;;8.10;99.90;;;;;;10271309;28;20376;-79
2023/01/28 12:49:49;;;;;;;7.13;4.15;;;8.10;99.90;;;;;;10267226;28;20027;-79
2023/01/28 12:54:57;;;;;;;6.63;3.80;;;8.10;99.90;;;;;;10292326;28;20056;-80
2023/01/28 13:00:05;;;;;;;7.37;3.90;;;8.00;99.90;;;;;;10280756;28;20096;-80
2023/01/28 13:05:14;;;;;;;7.63;3.75;;;7.90;99.90;;;;;;10275830;28;20523;-80
2023/01/28 13:10:23;;;;;;;6.30;3.80;;;7.90;99.90;;;;;;10270756;28;20416;-81
2023/01/28 13:15:24;;;;;;;6.38;3.65;;;7.90;99.90;;;;;;10282477;28;20031;-80
2023/01/28 13:20:35;;;;;;;8.73;3.45;;;7.90;99.90;;;;;;10290201;28;20037;-79
2023/01/28 13:25:50;;;;;;;6.68;3.50;;;7.90;99.90;;;;;;10308153;28;20023;-79
2023/01/28 13:31:13;;;;;;;7.45;4.10;;;8.00;99.90;;;;;;10287475;28;20339;-81
2023/01/28 13:36:22;;;;;;;8.82;4.00;;;8.10;99.90;;;;;;10272718;28;20526;-80
2023/01/28 13:41:23;;;;;;;5.97;3.40;;;7.90;99.90;;;;;;10283134;28;20033;-81
2023/01/28 13:46:29;;;;;;;7.22;3.85;;;8.10;99.90;;;;;;10274100;28;20033;-81
2023/01/28 13:51:34;;;;;;;7.97;4.20;;;7.90;99.90;;;;;;10268092;28;20118;-80
2023/01/28 13:57:00;;;;;;;8.82;4.10;;;7.90;99.90;;;;;;10277738;28;20463;-79
2023/01/28 14:02:39;;;;;;;6.45;3.95;;;7.80;99.90;;;;;;10278220;28;20039;-78
2023/01/28 14:07:39;;;;;;;9.15;3.88;;;7.80;99.90;;;;;;10369838;28;20080;-78
2023/01/28 14:13:04;;;;;;;5.72;3.67;;;7.90;99.90;;;;;;10304115;28;20044;-79
2023/01/28 14:18:25;;;;;;;7.45;3.78;;;7.80;99.90;;;;;;10276775;28;20031;-80
2023/01/28 14:23:29;;;;;;;6.22;3.53;;;7.80;99.90;;;;;;10273482;28;20090;-78
2023/01/28 14:29:09;;;;;;;6.72;3.50;;;8.50;99.90;;;;;;10266849;28;20494;-78
2023/01/28 14:34:24;;;;;;;5.87;3.33;;;7.80;99.90;;;;;;10269327;28;20183;-80
2023/01/28 14:39:28;;;;;;;5.30;3.05;;;7.70;99.90;;;;;;10264061;28;20039;-78
2023/01/28 14:44:35;;;;;;;6.82;3.75;;;7.90;99.90;;;;;;10263595;28;20037;-78
2023/01/28 14:50:01;;;;;;;6.53;3.45;;;8.30;99.90;;;;;;10273141;28;20028;-78
2023/01/28 14:55:20;;;;;;;8.95;3.50;;;7.80;99.90;;;;;;10270041;28;20023;-78
2023/01/28 15:00:28;;;;;;;7.43;3.22;;;7.80;99.90;;;;;;10305458;28;20034;-79
2023/01/28 15:05:30;;;;;;;7.68;3.90;;;7.70;99.90;;;;;;10318926;28;20027;-78
2023/01/28 15:10:36;;;;;;;6.25;3.40;;;7.70;99.90;;;;;;10292669;28;20022;-78
2023/01/28 15:15:39;;;;;;;6.28;3.15;;;7.70;99.90;;;;;;10275573;28;20104;-77
2023/01/28 15:21:06;;;;;;;6.75;3.67;;;7.10;99.90;;;;;;10311602;28;20038;-82
2023/01/28 15:26:17;;;;;;;7.43;3.30;;;7.70;99.90;;;;;;10298517;28;20039;-80
2023/01/28 15:31:31;;;;;;;6.88;3.30;;;7.70;99.90;;;;;;10302512;28;20526;-79
2023/01/28 15:36:32;;;;;;;6.70;3.53;;;7.70;99.90;;;;;;10277380;28;20027;-80
2023/01/28 15:41:37;;;;;;;8.57;3.65;;;7.70;99.90;;;;;;10260217;28;20034;-80
2023/01/28 15:46:39;;;;;;;22.85;8.88;;;7.70;99.90;;;;;;10278419;28;20046;-80
2023/01/28 15:51:53;;;;;;;25.90;8.50;;;7.50;99.90;;;;;;10269195;28;20121;-82
2023/01/28 15:56:54;;;;;;;28.23;8.88;;;7.30;99.90;;;;;;10267737;28;20046;-79
2023/01/28 16:02:22;;;;;;;26.35;8.63;;;7.50;99.90;;;;;;10268242;28;20042;-81
2023/01/28 16:07:29;;;;;;;23.53;8.57;;;7.30;99.90;;;;;;10275057;28;20122;-80
2023/01/28 16:12:33;;;;;;;22.33;8.23;;;7.30;99.90;;;;;;10281716;28;20309;-80
2023/01/28 16:17:46;;;;;;;23.88;8.25;;;7.30;99.90;;;;;;10270511;28;20024;-81
2023/01/28 16:22:47;;;;;;;25.90;9.23;;;7.40;99.90;;;;;;10275211;28;20078;-80
2023/01/28 16:27:48;;;;;;;26.48;8.48;;;7.40;99.90;;;;;;10302759;28;20502;-80
2023/01/28 16:32:49;;;;;;;21.13;8.90;;;7.80;99.90;;;;;;10288125;28;20039;-81
2023/01/28 16:37:50;;;;;;;20.63;7.88;;;7.50;99.90;;;;;;10287335;28;20037;-81
2023/01/28 17:04:52;;;;;;;19.15;7.75;;;7.50;99.90;;;;;;10554137;27;20845;-67
2023/01/28 17:09:53;;;;;;;20.08;7.60;;;7.50;99.90;;;;;;10556173;28;20066;-66
2023/01/28 17:14:54;;;;;;;23.42;8.02;;;7.50;99.90;;;;;;10549016;28;20609;-66
2023/01/28 17:19:54;;;;;;;14.68;6.75;;;7.50;99.90;;;;;;10536734;28;20402;-67
2023/01/28 17:24:55;;;;;;;19.17;6.90;;;7.80;99.90;;;;;;10550950;28;20368;-66
2023/01/28 17:29:55;;;;;;;18.13;7.00;;;7.40;99.90;;;;;;10549458;28;20095;-67
2023/01/28 17:34:56;;;;;;;15.50;6.38;;;7.40;99.90;;;;;;10547234;28;20089;-67
2023/01/28 17:39:56;;;;;;;17.38;6.15;;;7.40;99.90;;;;;;10544454;28;20027;-67
2023/01/28 17:45:01;;;;;;;16.35;5.97;;;7.40;99.90;;;;;;10543754;28;20023;-69
2023/01/28 17:50:02;;;;;;;12.30;5.20;;;7.40;99.90;;;;;;10536920;28;20024;-67
2023/01/28 17:55:03;;;;;;;12.27;5.38;;;7.50;99.90;;;;;;10548041;28;20237;-67
2023/01/28 18:00:05;;;;;;;12.82;5.47;;;7.40;99.90;;;;;;10536185;28;20076;-68
2023/01/28 18:05:06;;;;;;;17.00;6.18;;;7.40;99.90;;;;;;10538511;28;20434;-67
2023/01/28 18:10:08;;;;;;;10.40;4.78;;;7.40;99.90;;;;;;10537711;28;20020;-67
2023/01/28 18:15:09;;;;;;;12.10;4.75;;;7.40;99.90;;;;;;10511595;28;20497;-67
2023/01/28 18:20:10;;;;;;;12.05;5.35;;;7.40;99.90;;;;;;10507506;28;20112;-66
2023/01/28 18:25:15;;;;;;;10.68;5.13;;;7.30;99.90;;;;;;10501397;28;20432;-67
2023/01/28 18:30:17;;;;;;;12.27;4.72;;;7.40;99.90;;;;;;10506522;28;20101;-66
2023/01/28 18:35:17;;;;;;;10.82;4.53;;;7.30;99.90;;;;;;10510517;28;20042;-67
2023/01/28 18:40:18;;;;;;;9.32;3.80;;;7.30;99.90;;;;;;10516183;28;20114;-66
2023/01/28 18:45:19;;;;;;;8.90;4.10;;;7.30;99.90;;;;;;10514155;28;20077;-66
2023/01/28 18:50:19;;;;;;;10.00;4.60;;;7.30;99.90;;;;;;10506867;28;20084;-67
2023/01/28 18:55:20;;;;;;;10.57;4.40;;;7.30;99.90;;;;;;10523499;28;20496;-66
2023/01/28 19:00:21;;;;;;;9.13;4.32;;;7.20;99.90;;;;;;10515982;28;20360;-67
2023/01/28 19:05:21;;;;;;;8.07;4.00;;;7.30;99.90;;;;;;10513281;28;20019;-67
2023/01/28 19:10:22;;;;;;;9.25;4.05;;;7.30;99.90;;;;;;10518943;28;20035;-67
2023/01/28 19:15:23;;;;;;;9.05;3.97;;;7.20;99.90;;;;;;10519046;28;20176;-67
2023/01/28 19:20:24;;;;;;;8.02;3.70;;;7.20;99.90;;;;;;10528885;28;20299;-67
2023/01/28 19:25:24;;;;;;;7.28;3.70;;;7.20;99.90;;;;;;10512845;28;20017;-67
2023/01/28 19:30:25;;;;;;;6.18;3.35;;;7.20;99.90;;;;;;10508578;28;20444;-67
2023/01/28 19:35:26;;;;;;;8.55;4.13;;;7.20;99.90;;;;;;10510178;28;20081;-67
2023/01/28 19:40:27;;;;;;;6.65;3.67;;;7.20;99.90;;;;;;10509352;28;20021;-66
2023/01/28 19:45:28;;;;;;;9.35;3.97;;;7.20;99.90;;;;;;10514758;28;20468;-67
2023/01/28 19:50:29;;;;;;;7.78;3.60;;;7.20;99.90;;;;;;10520728;28;20151;-66
2023/01/28 19:55:30;;;;;;;7.18;3.67;;;7.20;99.90;;;;;;10523595;28;20032;-66
2023/01/28 20:00:30;;;;;;;8.52;3.60;;;7.20;99.90;;;;;;10508263;28;20012;-67
2023/01/28 20:05:31;;;;;;;7.07;3.45;;;7.20;99.90;;;;;;10508540;28;20024;-67
2023/01/28 20:10:32;;;;;;;7.32;3.30;;;7.20;99.90;;;;;;10513206;28;20391;-67
2023/01/28 20:15:32;;;;;;;9.88;4.40;;;7.20;99.90;;;;;;10514158;28;20106;-68
2023/01/28 20:20:33;;;;;;;8.60;3.92;;;7.20;99.90;;;;;;10511167;28;20039;-66
2023/01/28 20:25:33;;;;;;;7.70;3.60;;;7.10;99.90;;;;;;10514220;28;20032;-66
2023/01/28 20:30:34;;;;;;;7.63;3.92;;;7.20;99.90;;;;;;10503973;28;20025;-67
2023/01/28 20:35:35;;;;;;;7.65;4.05;;;7.10;99.90;;;;;;10511104;28;20513;-67
2023/01/28 20:40:38;;;;;;;7.63;3.97;;;7.10;99.90;;;;;;10514635;28;20024;-66
2023/01/28 20:45:39;;;;;;;7.88;4.28;;;7.10;99.90;;;;;;10517248;28;20032;-66
2023/01/28 20:50:40;;;;;;;6.65;3.78;;;7.10;99.90;;;;;;10513500;28;20020;-67
2023/01/28 20:55:40;;;;;;;9.25;5.00;;;7.10;99.90;;;;;;10511351;28;20043;-66
2023/01/28 21:00:41;;;;;;;8.88;4.95;;;7.10;99.90;;;;;;10514112;28;20028;-66
2023/01/28 21:05:46;;;;;;;8.60;4.32;;;7.10;99.90;;;;;;10510464;28;20495;-66
2023/01/28 21:10:47;;;;;;;9.65;4.38;;;7.10;99.90;;;;;;10507721;28;20024;-66
2023/01/28 21:15:53;;;;;;;8.52;4.63;;;7.10;99.90;;;;;;10511054;28;20399;-66
2023/01/28 21:20:54;;;;;;;8.68;4.05;;;7.10;99.90;;;;;;10515432;28;20029;-67
2023/01/28 21:25:54;;;;;;;8.02;4.22;;;7.10;99.90;;;;;;10513951;28;20020;-67
2023/01/28 21:31:04;;;;;;;9.32;4.78;;;7.10;99.90;;;;;;10501497;28;20031;-67
2023/01/28 21:36:13;;;;;;;11.05;5.03;;;8.00;99.90;;;;;;10510312;28;20028;-67
2023/01/28 21:41:13;;;;;;;7.38;4.55;;;7.10;99.90;;;;;;10515429;28;20060;-66
2023/01/28 21:46:14;;;;;;;9.13;4.68;;;7.10;99.90;;;;;;10506959;28;20111;-66
2023/01/28 21:56:34;;;;;;;8.77;4.57;;;7.00;99.90;;;;;;10515937;28;20099;-66
2023/01/28 22:01:34;;;;;;;8.98;4.78;;;7.00;99.90;;;;;;10515193;28;20025;-67
2023/01/28 22:06:35;;;;;;;9.93;4.80;;;7.00;99.90;;;;;;10505964;28;20013;-67
2023/01/28 22:11:39;;;;;;;9.40;5.10;;;7.00;99.90;;;;;;10515912;28;20097;-67
2023/01/28 22:16:40;;;;;;;7.63;4.35;;;7.00;99.90;;;;;;10515397;28;20497;-66
2023/01/28 22:21:43;;;;;;;8.32;4.88;;;7.00;99.90;;;;;;10506985;28;20120;-66
2023/01/28 22:26:45;;;;;;;9.13;4.57;;;7.00;99.90;;;;;;10519150;28;20068;-66
2023/01/28 22:31:48;;;;;;;9.10;4.90;;;7.00;99.90;;;;;;10509921;28;20043;-66
2023/01/28 22:36:49;;;;;;;10.05;5.15;;;7.00;99.90;;;;;;10510965;28;20020;-66
2023/01/28 22:41:50;;;;;;;9.55;4.95;;;7.00;99.90;;;;;;10503347;28;20028;-66
2023/01/28 22:46:51;;;;;;;8.55;4.43;;;7.00;99.90;;;;;;10510053;28;20016;-66
2023/01/28 22:51:51;;;;;;;8.98;4.60;;;7.00;99.90;;;;;;10510032;28;20028;-66
2023/01/28 22:56:52;;;;;;;12.98;5.63;;;7.00;99.90;;;;;;10516638;28;20017;-66
2023/01/28 23:01:52;;;;;;;8.23;4.65;;;7.00;99.90;;;;;;10508529;28;20408;-66
2023/01/28 23:06:53;;;;;;;8.50;4.97;;;7.00;99.90;;;;;;10518958;28;20260;-66
2023/01/28 23:11:54;;;;;;;9.63;5.07;;;7.00;99.90;;;;;;10507799;28;20055;-66
2023/01/28 23:27:42;;;;;;;9.32;4.68;;;6.90;99.90;;;;;;10496718;28;20181;-66
2023/01/28 23:32:47;;;;;;;9.00;4.60;;;6.90;99.90;;;;;;10498053;28;20023;-66
2023/01/28 23:37:47;;;;;;;7.55;4.70;;;6.90;99.90;;;;;;10498563;28;20399;-66
2023/01/28 23:42:52;;;;;;;8.93;4.95;;;6.90;99.90;;;;;;10513476;28;20028;-66
2023/01/28 23:47:53;;;;;;;10.18;4.97;;;6.90;99.90;;;;;;10510934;28;20027;-66
2023/01/28 23:52:53;;;;;;;8.23;4.82;;;6.90;99.90;;;;;;10507486;28;20038;-66
2023/01/28 23:57:54;;;;;;;9.38;5.15;;;6.90;99.90;;;;;;10508847;28;20047;-66
